sensor_id;sensor_type;location;lat;lon;timestamp;pressure;altitude;pressure_sealevel;temperature;humidity
58668;BME280;59852;43.086;25.634;2023-10-08T00:01:02;99110.13;;;13.40;54.31
58668;BME280;59852;43.086;25.634;2023-10-08T00:03:27;99108.44;;;13.28;54.75
58668;BME280;59852;43.086;25.634;2023-10-08T00:05:54;99106.16;;;13.23;55.09
58668;BME280;59852;43.086;25.634;2023-10-08T00:08:20;99094.72;;;13.00;55.62
58668;BME280;59852;43.086;25.634;2023-10-08T00:10:46;99093.25;;;13.20;55.83
58668;BME280;59852;43.086;25.634;2023-10-08T00:13:13;99087.03;;;12.86;55.73
58668;BME280;59852;43.086;25.634;2023-10-08T00:15:40;99092.72;;;13.15;55.93
58668;BME280;59852;43.086;25.634;2023-10-08T00:18:21;99086.81;;;13.35;55.73
58668;BME280;59852;43.086;25.634;2023-10-08T00:20:47;99088.38;;;12.91;56.26
58668;BME280;59852;43.086;25.634;2023-10-08T00:23:41;99080.47;;;12.69;58.04
58668;BME280;59852;43.086;25.634;2023-10-08T00:26:25;99085.63;;;12.93;57.46
58668;BME280;59852;43.086;25.634;2023-10-08T00:31:24;99080.47;;;12.69;58.51
58668;BME280;59852;43.086;25.634;2023-10-08T00:33:56;99083.41;;;12.29;59.67
58668;BME280;59852;43.086;25.634;2023-10-08T00:36:22;99083.72;;;12.49;59.11
58668;BME280;59852;43.086;25.634;2023-10-08T00:38:49;99071.25;;;12.75;57.90
58668;BME280;59852;43.086;25.634;2023-10-08T00:41:17;99073.50;;;12.68;59.04
58668;BME280;59852;43.086;25.634;2023-10-08T00:43:48;99070.53;;;12.61;58.89
58668;BME280;59852;43.086;25.634;2023-10-08T00:46:14;99066.91;;;12.51;59.16
58668;BME280;59852;43.086;25.634;2023-10-08T00:48:54;99065.88;;;12.65;59.15
58668;BME280;59852;43.086;25.634;2023-10-08T00:51:21;99056.31;;;12.64;59.09
58668;BME280;59852;43.086;25.634;2023-10-08T00:53:46;99057.81;;;12.79;58.95
58668;BME280;59852;43.086;25.634;2023-10-08T00:56:13;99059.81;;;12.17;60.52
58668;BME280;59852;43.086;25.634;2023-10-08T00:58:43;99049.63;;;12.01;61.60
58668;BME280;59852;43.086;25.634;2023-10-08T01:01:12;99052.19;;;12.14;60.81
58668;BME280;59852;43.086;25.634;2023-10-08T01:03:37;99056.53;;;12.02;61.24
58668;BME280;59852;43.086;25.634;2023-10-08T01:06:10;99051.91;;;11.82;62.24
58668;BME280;59852;43.086;25.634;2023-10-08T01:08:36;99055.66;;;11.90;61.72
58668;BME280;59852;43.086;25.634;2023-10-08T01:11:20;99047.66;;;12.40;60.17
58668;BME280;59852;43.086;25.634;2023-10-08T01:14:04;99049.84;;;12.22;60.56
58668;BME280;59852;43.086;25.634;2023-10-08T01:16:32;99047.59;;;12.52;59.93
58668;BME280;59852;43.086;25.634;2023-10-08T01:18:59;99043.13;;;12.18;60.55
58668;BME280;59852;43.086;25.634;2023-10-08T01:21:28;99041.88;;;12.23;59.44
58668;BME280;59852;43.086;25.634;2023-10-08T01:24:00;99037.72;;;12.08;59.04
58668;BME280;59852;43.086;25.634;2023-10-08T01:26:27;99042.25;;;12.30;58.50
58668;BME280;59852;43.086;25.634;2023-10-08T01:28:56;99039.16;;;12.36;58.33
58668;BME280;59852;43.086;25.634;2023-10-08T01:31:22;99039.50;;;12.67;57.81
58668;BME280;59852;43.086;25.634;2023-10-08T01:33:47;99042.50;;;12.38;58.19
58668;BME280;59852;43.086;25.634;2023-10-08T01:36:15;99037.78;;;12.43;57.88
58668;BME280;59852;43.086;25.634;2023-10-08T01:38:41;99042.69;;;12.24;58.66
58668;BME280;59852;43.086;25.634;2023-10-08T01:41:13;99043.28;;;12.51;57.90
58668;BME280;59852;43.086;25.634;2023-10-08T01:43:45;99044.56;;;12.70;57.70
58668;BME280;59852;43.086;25.634;2023-10-08T01:46:11;99049.50;;;12.50;57.94
58668;BME280;59852;43.086;25.634;2023-10-08T01:48:37;99032.53;;;12.43;58.05
58668;BME280;59852;43.086;25.634;2023-10-08T01:51:03;99037.50;;;12.35;57.94
58668;BME280;59852;43.086;25.634;2023-10-08T01:53:34;99033.28;;;12.21;58.29
58668;BME280;59852;43.086;25.634;2023-10-08T01:56:00;99037.25;;;12.03;58.88
58668;BME280;59852;43.086;25.634;2023-10-08T01:58:26;99039.16;;;11.39;61.88
58668;BME280;59852;43.086;25.634;2023-10-08T02:00:53;99029.34;;;11.66;61.88
58668;BME280;59852;43.086;25.634;2023-10-08T02:03:23;99024.63;;;11.84;62.25
58668;BME280;59852;43.086;25.634;2023-10-08T02:05:49;99031.94;;;11.79;61.94
58668;BME280;59852;43.086;25.634;2023-10-08T02:08:18;99023.19;;;12.04;61.55
58668;BME280;59852;43.086;25.634;2023-10-08T02:10:44;99022.66;;;11.99;61.29
58668;BME280;59852;43.086;25.634;2023-10-08T02:13:12;99015.19;;;11.69;62.04
58668;BME280;59852;43.086;25.634;2023-10-08T02:15:43;99012.16;;;11.75;62.10
58668;BME280;59852;43.086;25.634;2023-10-08T02:18:09;99011.94;;;11.41;63.30
58668;BME280;59852;43.086;25.634;2023-10-08T02:20:34;99011.09;;;11.28;64.00
58668;BME280;59852;43.086;25.634;2023-10-08T02:22:59;99004.63;;;11.21;63.63
58668;BME280;59852;43.086;25.634;2023-10-08T02:25:25;99004.84;;;11.31;63.24
58668;BME280;59852;43.086;25.634;2023-10-08T02:27:50;99011.38;;;11.49;63.20
58668;BME280;59852;43.086;25.634;2023-10-08T02:30:16;99015.06;;;11.46;63.14
58668;BME280;59852;43.086;25.634;2023-10-08T02:32:43;99011.09;;;11.41;63.49
58668;BME280;59852;43.086;25.634;2023-10-08T02:35:08;99014.38;;;11.32;63.33
58668;BME280;59852;43.086;25.634;2023-10-08T02:37:36;99007.53;;;11.42;63.35
58668;BME280;59852;43.086;25.634;2023-10-08T02:40:05;99010.41;;;11.50;62.89
58668;BME280;59852;43.086;25.634;2023-10-08T02:42:39;99007.34;;;11.32;63.62
58668;BME280;59852;43.086;25.634;2023-10-08T02:45:05;99004.91;;;11.42;62.82
58668;BME280;59852;43.086;25.634;2023-10-08T02:47:30;99001.06;;;11.59;62.86
58668;BME280;59852;43.086;25.634;2023-10-08T02:49:57;99002.00;;;11.70;62.56
58668;BME280;59852;43.086;25.634;2023-10-08T02:52:23;98998.38;;;11.60;62.82
58668;BME280;59852;43.086;25.634;2023-10-08T02:54:51;99001.06;;;11.59;62.92
58668;BME280;59852;43.086;25.634;2023-10-08T02:57:18;99001.31;;;11.56;62.85
58668;BME280;59852;43.086;25.634;2023-10-08T02:59:46;99002.53;;;11.26;63.79
58668;BME280;59852;43.086;25.634;2023-10-08T03:02:12;99006.38;;;11.20;63.87
58668;BME280;59852;43.086;25.634;2023-10-08T03:04:42;98988.28;;;11.67;62.59
58668;BME280;59852;43.086;25.634;2023-10-08T03:07:13;98996.06;;;11.56;62.56
58668;BME280;59852;43.086;25.634;2023-10-08T03:09:50;98985.94;;;11.75;62.55
58668;BME280;59852;43.086;25.634;2023-10-08T03:12:18;98982.75;;;11.59;62.29
58668;BME280;59852;43.086;25.634;2023-10-08T03:14:44;98983.19;;;11.89;61.76
58668;BME280;59852;43.086;25.634;2023-10-08T03:17:27;98984.03;;;11.77;61.96
58668;BME280;59852;43.086;25.634;2023-10-08T03:19:54;98982.34;;;11.89;61.73
58668;BME280;59852;43.086;25.634;2023-10-08T03:22:26;98977.19;;;11.63;62.78
58668;BME280;59852;43.086;25.634;2023-10-08T03:24:58;98977.72;;;11.92;61.65
58668;BME280;59852;43.086;25.634;2023-10-08T03:27:23;98977.34;;;12.10;61.96
58668;BME280;59852;43.086;25.634;2023-10-08T03:29:51;98981.13;;;12.05;60.25
58668;BME280;59852;43.086;25.634;2023-10-08T03:32:19;98976.47;;;12.09;60.13
58668;BME280;59852;43.086;25.634;2023-10-08T03:34:51;98972.38;;;11.94;59.99
58668;BME280;59852;43.086;25.634;2023-10-08T03:37:20;98970.19;;;11.88;60.20
58668;BME280;59852;43.086;25.634;2023-10-08T03:39:49;98979.22;;;11.84;61.48
58668;BME280;59852;43.086;25.634;2023-10-08T03:42:26;98979.16;;;11.72;61.81
58668;BME280;59852;43.086;25.634;2023-10-08T03:44:54;98983.91;;;11.55;62.97
58668;BME280;59852;43.086;25.634;2023-10-08T03:47:23;98986.00;;;11.62;62.32
58668;BME280;59852;43.086;25.634;2023-10-08T03:49:51;98978.69;;;11.91;62.22
58668;BME280;59852;43.086;25.634;2023-10-08T03:52:17;98979.97;;;11.36;62.90
58668;BME280;59852;43.086;25.634;2023-10-08T03:54:50;98971.53;;;11.57;63.00
58668;BME280;59852;43.086;25.634;2023-10-08T03:57:30;98972.97;;;11.73;61.85
58668;BME280;59852;43.086;25.634;2023-10-08T04:00:07;98973.03;;;11.85;60.78
58668;BME280;59852;43.086;25.634;2023-10-08T04:02:37;98970.47;;;11.96;60.37
58668;BME280;59852;43.086;25.634;2023-10-08T04:05:06;98961.94;;;12.05;60.46
58668;BME280;59852;43.086;25.634;2023-10-08T04:07:44;98963.63;;;11.82;61.05
58668;BME280;59852;43.086;25.634;2023-10-08T04:10:28;98963.56;;;11.95;60.42
58668;BME280;59852;43.086;25.634;2023-10-08T04:13:02;98965.78;;;11.88;60.50
58668;BME280;59852;43.086;25.634;2023-10-08T04:15:28;98958.75;;;11.89;61.25
58668;BME280;59852;43.086;25.634;2023-10-08T04:17:53;98958.19;;;11.72;61.22
58668;BME280;59852;43.086;25.634;2023-10-08T04:20:18;98962.13;;;11.78;61.48
58668;BME280;59852;43.086;25.634;2023-10-08T04:23:03;98960.84;;;11.60;62.31
58668;BME280;59852;43.086;25.634;2023-10-08T04:25:30;98958.50;;;11.44;62.62
58668;BME280;59852;43.086;25.634;2023-10-08T04:27:56;98961.53;;;11.51;62.71
58668;BME280;59852;43.086;25.634;2023-10-08T04:30:33;98969.50;;;11.36;62.96
58668;BME280;59852;43.086;25.634;2023-10-08T04:33:02;98964.09;;;11.63;62.41
58668;BME280;59852;43.086;25.634;2023-10-08T04:35:32;98961.66;;;11.97;61.08
58668;BME280;59852;43.086;25.634;2023-10-08T04:37:59;98966.69;;;12.00;60.50
58668;BME280;59852;43.086;25.634;2023-10-08T04:40:25;98964.41;;;12.30;59.43
58668;BME280;59852;43.086;25.634;2023-10-08T04:42:55;98961.44;;;12.35;59.05
58668;BME280;59852;43.086;25.634;2023-10-08T04:45:22;98966.72;;;12.57;58.45
58668;BME280;59852;43.086;25.634;2023-10-08T04:47:51;98963.13;;;12.47;58.53
58668;BME280;59852;43.086;25.634;2023-10-08T04:50:16;98959.72;;;12.69;57.99
58668;BME280;59852;43.086;25.634;2023-10-08T04:52:45;98957.94;;;12.92;55.58
58668;BME280;59852;43.086;25.634;2023-10-08T04:55:21;98952.94;;;12.89;57.92
58668;BME280;59852;43.086;25.634;2023-10-08T04:57:53;98960.34;;;13.06;55.79
58668;BME280;59852;43.086;25.634;2023-10-08T05:00:19;98955.31;;;13.14;54.34
58668;BME280;59852;43.086;25.634;2023-10-08T05:03:04;98956.78;;;13.30;54.00
58668;BME280;59852;43.086;25.634;2023-10-08T05:05:38;98956.88;;;13.39;53.11
58668;BME280;59852;43.086;25.634;2023-10-08T05:08:19;98950.94;;;13.37;53.38
58668;BME280;59852;43.086;25.634;2023-10-08T05:11:08;98954.78;;;13.76;51.51
58668;BME280;59852;43.086;25.634;2023-10-08T05:13:56;98943.41;;;13.76;50.90
58668;BME280;59852;43.086;25.634;2023-10-08T05:16:27;98948.00;;;13.95;51.82
58668;BME280;59852;43.086;25.634;2023-10-08T05:19:08;98942.66;;;14.17;50.79
58668;BME280;59852;43.086;25.634;2023-10-08T05:21:52;98946.13;;;14.18;49.28
58668;BME280;59852;43.086;25.634;2023-10-08T05:24:30;98947.59;;;14.73;47.50
58668;BME280;59852;43.086;25.634;2023-10-08T05:27:04;98933.00;;;15.90;46.58
58668;BME280;59852;43.086;25.634;2023-10-08T05:29:47;98927.94;;;19.73;37.55
58668;BME280;59852;43.086;25.634;2023-10-08T05:32:39;98941.13;;;16.83;42.21
58668;BME280;59852;43.086;25.634;2023-10-08T05:35:24;98935.22;;;17.27;41.04
58668;BME280;59852;43.086;25.634;2023-10-08T05:38:15;98934.34;;;15.55;45.72
58668;BME280;59852;43.086;25.634;2023-10-08T05:40:56;98941.03;;;15.19;47.16
58668;BME280;59852;43.086;25.634;2023-10-08T05:43:43;98936.44;;;15.21;47.30
58668;BME280;59852;43.086;25.634;2023-10-08T05:46:08;98948.09;;;15.18;46.98
58668;BME280;59852;43.086;25.634;2023-10-08T05:48:52;98943.53;;;15.20;47.61
58668;BME280;59852;43.086;25.634;2023-10-08T05:51:33;98951.16;;;15.24;47.60
58668;BME280;59852;43.086;25.634;2023-10-08T05:54:20;98943.69;;;15.29;47.68
58668;BME280;59852;43.086;25.634;2023-10-08T05:56:55;98955.56;;;15.13;48.69
58668;BME280;59852;43.086;25.634;2023-10-08T05:59:52;98932.81;;;15.12;47.64
58668;BME280;59852;43.086;25.634;2023-10-08T06:02:30;98940.59;;;15.24;47.94
58668;BME280;59852;43.086;25.634;2023-10-08T06:04:59;98942.56;;;15.21;49.87
58668;BME280;59852;43.086;25.634;2023-10-08T06:07:46;98945.63;;;15.27;48.27
58668;BME280;59852;43.086;25.634;2023-10-08T06:10:17;98927.28;;;15.15;47.61
58668;BME280;59852;43.086;25.634;2023-10-08T06:12:58;98925.25;;;15.29;47.83
58668;BME280;59852;43.086;25.634;2023-10-08T06:18:24;98920.53;;;15.32;49.92
58668;BME280;59852;43.086;25.634;2023-10-08T06:20:56;98914.44;;;15.41;49.48
58668;BME280;59852;43.086;25.634;2023-10-08T06:23:24;98919.50;;;15.54;49.31
58668;BME280;59852;43.086;25.634;2023-10-08T06:25:50;98914.94;;;15.66;50.41
58668;BME280;59852;43.086;25.634;2023-10-08T06:28:30;98912.72;;;15.71;50.91
58668;BME280;59852;43.086;25.634;2023-10-08T06:30:59;98912.56;;;15.72;51.50
58668;BME280;59852;43.086;25.634;2023-10-08T06:33:26;98908.03;;;15.84;49.93
58668;BME280;59852;43.086;25.634;2023-10-08T06:35:56;98899.13;;;16.04;48.63
58668;BME280;59852;43.086;25.634;2023-10-08T06:38:28;98905.50;;;16.12;48.45
58668;BME280;59852;43.086;25.634;2023-10-08T06:40:56;98901.63;;;16.16;47.68
58668;BME280;59852;43.086;25.634;2023-10-08T06:43:25;98903.81;;;16.20;47.81
58668;BME280;59852;43.086;25.634;2023-10-08T06:45:50;98904.94;;;16.18;46.79
58668;BME280;59852;43.086;25.634;2023-10-08T06:48:23;98902.00;;;16.30;46.79
58668;BME280;59852;43.086;25.634;2023-10-08T06:50:49;98901.09;;;16.59;46.18
58668;BME280;59852;43.086;25.634;2023-10-08T06:53:15;98892.88;;;16.81;46.39
58668;BME280;59852;43.086;25.634;2023-10-08T06:55:43;98893.66;;;16.91;45.84
58668;BME280;59852;43.086;25.634;2023-10-08T06:58:09;98887.88;;;17.33;43.80
58668;BME280;59852;43.086;25.634;2023-10-08T07:00:36;98886.66;;;17.91;43.11
58668;BME280;59852;43.086;25.634;2023-10-08T07:03:06;98885.00;;;17.90;40.81
58668;BME280;59852;43.086;25.634;2023-10-08T07:05:33;98881.53;;;18.33;37.30
58668;BME280;59852;43.086;25.634;2023-10-08T07:08:01;98883.75;;;18.46;37.88
58668;BME280;59852;43.086;25.634;2023-10-08T07:10:31;98879.06;;;18.91;37.30
58668;BME280;59852;43.086;25.634;2023-10-08T07:12:57;98876.75;;;18.88;37.14
58668;BME280;59852;43.086;25.634;2023-10-08T07:15:24;98872.44;;;19.38;36.91
58668;BME280;59852;43.086;25.634;2023-10-08T07:17:51;98881.03;;;20.07;33.41
58668;BME280;59852;43.086;25.634;2023-10-08T07:20:16;98876.03;;;20.12;33.92
58668;BME280;59852;43.086;25.634;2023-10-08T07:22:47;98878.47;;;20.54;31.87
58668;BME280;59852;43.086;25.634;2023-10-08T07:25:19;98874.97;;;20.70;31.93
58668;BME280;59852;43.086;25.634;2023-10-08T07:27:46;98870.63;;;20.77;31.30
58668;BME280;59852;43.086;25.634;2023-10-08T07:30:12;98851.59;;;21.04;30.30
58668;BME280;59852;43.086;25.634;2023-10-08T07:32:38;98858.50;;;21.13;30.32
58668;BME280;59852;43.086;25.634;2023-10-08T07:35:04;98853.16;;;21.53;28.85
58668;BME280;59852;43.086;25.634;2023-10-08T07:37:50;98862.28;;;21.81;29.38
58668;BME280;59852;43.086;25.634;2023-10-08T07:40:16;98858.09;;;21.87;29.27
58668;BME280;59852;43.086;25.634;2023-10-08T07:42:41;98855.28;;;22.03;31.77
58668;BME280;59852;43.086;25.634;2023-10-08T07:45:07;98846.91;;;22.14;27.95
58668;BME280;59852;43.086;25.634;2023-10-08T07:47:33;98848.22;;;22.33;27.72
58668;BME280;59852;43.086;25.634;2023-10-08T07:49:59;98839.28;;;22.26;27.72
58668;BME280;59852;43.086;25.634;2023-10-08T07:52:24;98837.81;;;22.23;27.94
58668;BME280;59852;43.086;25.634;2023-10-08T07:54:50;98841.69;;;22.36;29.49
58668;BME280;59852;43.086;25.634;2023-10-08T07:57:15;98823.03;;;22.36;28.42
58668;BME280;59852;43.086;25.634;2023-10-08T07:59:44;98825.91;;;22.64;28.26
58668;BME280;59852;43.086;25.634;2023-10-08T08:02:12;98820.91;;;23.05;26.88
58668;BME280;59852;43.086;25.634;2023-10-08T08:04:41;98826.97;;;22.69;27.09
58668;BME280;59852;43.086;25.634;2023-10-08T08:07:08;98813.00;;;22.97;26.99
58668;BME280;59852;43.086;25.634;2023-10-08T08:09:41;98816.69;;;22.96;26.95
58668;BME280;59852;43.086;25.634;2023-10-08T08:12:09;98811.88;;;23.06;27.24
58668;BME280;59852;43.086;25.634;2023-10-08T08:14:38;98813.00;;;22.97;27.14
58668;BME280;59852;43.086;25.634;2023-10-08T08:17:06;98805.81;;;23.12;27.23
58668;BME280;59852;43.086;25.634;2023-10-08T08:19:43;98792.59;;;23.04;27.66
58668;BME280;59852;43.086;25.634;2023-10-08T08:22:12;98795.09;;;23.27;27.25
58668;BME280;59852;43.086;25.634;2023-10-08T08:24:46;98786.44;;;23.25;27.49
58668;BME280;59852;43.086;25.634;2023-10-08T08:27:12;98770.25;;;23.26;26.94
58668;BME280;59852;43.086;25.634;2023-10-08T08:29:49;98776.91;;;23.37;27.18
58668;BME280;59852;43.086;25.634;2023-10-08T08:32:14;98780.09;;;23.26;27.34
58668;BME280;59852;43.086;25.634;2023-10-08T08:34:46;98771.53;;;23.52;27.46
58668;BME280;59852;43.086;25.634;2023-10-08T08:37:15;98769.88;;;23.51;26.87
58668;BME280;59852;43.086;25.634;2023-10-08T08:39:41;98763.88;;;23.06;28.77
58668;BME280;59852;43.086;25.634;2023-10-08T08:42:07;98755.16;;;23.40;27.08
58668;BME280;59852;43.086;25.634;2023-10-08T08:44:36;98759.81;;;23.10;27.81
58668;BME280;59852;43.086;25.634;2023-10-08T08:47:09;98755.75;;;23.14;27.43
58668;BME280;59852;43.086;25.634;2023-10-08T08:49:39;98762.34;;;23.39;27.71
58668;BME280;59852;43.086;25.634;2023-10-08T08:52:05;98759.75;;;23.25;28.00
58668;BME280;59852;43.086;25.634;2023-10-08T08:54:30;98745.59;;;23.45;27.89
58668;BME280;59852;43.086;25.634;2023-10-08T08:56:56;98745.78;;;23.65;27.04
58668;BME280;59852;43.086;25.634;2023-10-08T08:59:23;98738.00;;;23.92;27.22
58668;BME280;59852;43.086;25.634;2023-10-08T09:01:49;98747.06;;;23.97;26.67
58668;BME280;59852;43.086;25.634;2023-10-08T09:04:15;98739.97;;;23.83;27.71
58668;BME280;59852;43.086;25.634;2023-10-08T09:06:42;98734.97;;;24.01;27.48
58668;BME280;59852;43.086;25.634;2023-10-08T09:09:10;98739.38;;;23.88;27.89
58668;BME280;59852;43.086;25.634;2023-10-08T09:11:50;98735.31;;;24.26;27.41
58668;BME280;59852;43.086;25.634;2023-10-08T09:14:23;98729.16;;;24.26;27.42
58668;BME280;59852;43.086;25.634;2023-10-08T09:16:50;98723.13;;;24.11;27.81
58668;BME280;59852;43.086;25.634;2023-10-08T09:19:16;98744.84;;;23.52;29.19
58668;BME280;59852;43.086;25.634;2023-10-08T09:22:03;98729.28;;;23.83;28.73
58668;BME280;59852;43.086;25.634;2023-10-08T09:24:33;98729.16;;;24.26;28.20
58668;BME280;59852;43.086;25.634;2023-10-08T09:26:59;98723.69;;;24.06;28.97
58668;BME280;59852;43.086;25.634;2023-10-08T09:29:24;98720.47;;;24.17;28.99
58668;BME280;59852;43.086;25.634;2023-10-08T09:31:58;98728.00;;;24.35;28.88
58668;BME280;59852;43.086;25.634;2023-10-08T09:34:28;98717.63;;;24.19;29.09
58668;BME280;59852;43.086;25.634;2023-10-08T09:36:54;98720.22;;;24.47;28.76
58668;BME280;59852;43.086;25.634;2023-10-08T09:39:20;98719.97;;;24.35;28.30
58668;BME280;59852;43.086;25.634;2023-10-08T09:41:49;98712.44;;;24.17;28.28
58668;BME280;59852;43.086;25.634;2023-10-08T09:44:15;98706.31;;;23.89;28.75
58668;BME280;59852;43.086;25.634;2023-10-08T09:46:42;98709.50;;;24.34;28.18
58668;BME280;59852;43.086;25.634;2023-10-08T09:49:07;98703.75;;;24.09;28.65
58668;BME280;59852;43.086;25.634;2023-10-08T09:51:38;98696.81;;;24.14;29.85
58668;BME280;59852;43.086;25.634;2023-10-08T09:54:11;98688.84;;;24.21;28.68
58668;BME280;59852;43.086;25.634;2023-10-08T09:56:40;98690.41;;;24.09;29.28
58668;BME280;59852;43.086;25.634;2023-10-08T09:59:06;98683.16;;;24.37;28.87
58668;BME280;59852;43.086;25.634;2023-10-08T10:01:34;98676.09;;;24.23;28.73
58668;BME280;59852;43.086;25.634;2023-10-08T10:04:00;98672.72;;;24.08;29.33
58668;BME280;59852;43.086;25.634;2023-10-08T10:06:26;98672.50;;;24.44;28.99
58668;BME280;59852;43.086;25.634;2023-10-08T10:08:51;98670.25;;;24.41;29.42
58668;BME280;59852;43.086;25.634;2023-10-08T10:11:25;98651.59;;;24.60;29.11
58668;BME280;59852;43.086;25.634;2023-10-08T10:13:57;98658.84;;;24.80;29.20
58668;BME280;59852;43.086;25.634;2023-10-08T10:16:25;98656.88;;;24.41;29.66
58668;BME280;59852;43.086;25.634;2023-10-08T10:18:54;98651.75;;;24.46;29.49
58668;BME280;59852;43.086;25.634;2023-10-08T10:21:25;98648.78;;;24.82;29.03
58668;BME280;59852;43.086;25.634;2023-10-08T10:23:52;98646.50;;;24.85;29.69
58668;BME280;59852;43.086;25.634;2023-10-08T10:26:26;98642.78;;;24.86;28.99
58668;BME280;59852;43.086;25.634;2023-10-08T10:31:49;98638.06;;;24.69;29.12
58668;BME280;59852;43.086;25.634;2023-10-08T10:34:19;98631.75;;;25.23;28.12
58668;BME280;59852;43.086;25.634;2023-10-08T10:36:45;98617.53;;;25.49;27.78
58668;BME280;59852;43.086;25.634;2023-10-08T10:39:17;98626.34;;;24.83;29.52
58668;BME280;59852;43.086;25.634;2023-10-08T10:41:51;98620.38;;;24.81;29.47
58668;BME280;59852;43.086;25.634;2023-10-08T10:44:21;98618.38;;;25.23;28.71
58668;BME280;59852;43.086;25.634;2023-10-08T10:46:46;98613.81;;;25.16;28.65
58668;BME280;59852;43.086;25.634;2023-10-08T10:49:38;98613.34;;;24.67;29.60
58668;BME280;59852;43.086;25.634;2023-10-08T10:52:13;98617.50;;;24.89;29.72
58668;BME280;59852;43.086;25.634;2023-10-08T10:54:43;98611.56;;;25.00;29.66
58668;BME280;59852;43.086;25.634;2023-10-08T10:57:15;98610.94;;;25.25;28.82
58668;BME280;59852;43.086;25.634;2023-10-08T10:59:43;98607.66;;;25.16;28.90
58668;BME280;59852;43.086;25.634;2023-10-08T11:02:18;98614.22;;;25.00;29.58
58668;BME280;59852;43.086;25.634;2023-10-08T11:04:55;98612.22;;;25.09;29.34
58668;BME280;59852;43.086;25.634;2023-10-08T11:07:26;98599.59;;;24.89;29.42
58668;BME280;59852;43.086;25.634;2023-10-08T11:09:52;98597.13;;;24.68;29.51
58668;BME280;59852;43.086;25.634;2023-10-08T11:12:20;98589.03;;;24.42;30.46
58668;BME280;59852;43.086;25.634;2023-10-08T11:14:48;98597.13;;;24.68;30.56
58668;BME280;59852;43.086;25.634;2023-10-08T11:17:17;98583.31;;;24.65;29.58
58668;BME280;59852;43.086;25.634;2023-10-08T11:19:45;98589.09;;;24.81;29.32
58668;BME280;59852;43.086;25.634;2023-10-08T11:22:12;98580.00;;;24.49;29.33
58668;BME280;59852;43.086;25.634;2023-10-08T11:24:41;98585.09;;;24.38;30.56
58668;BME280;59852;43.086;25.634;2023-10-08T11:27:07;98580.78;;;24.37;30.08
58668;BME280;59852;43.086;25.634;2023-10-08T11:29:45;98581.31;;;24.25;30.46
58668;BME280;59852;43.086;25.634;2023-10-08T11:32:11;98580.28;;;24.26;30.57
58668;BME280;59852;43.086;25.634;2023-10-08T11:34:38;98586.59;;;24.06;31.32
58668;BME280;59852;43.086;25.634;2023-10-08T11:37:04;98587.66;;;24.18;31.12
58668;BME280;59852;43.086;25.634;2023-10-08T11:39:41;98572.38;;;24.46;31.30
58668;BME280;59852;43.086;25.634;2023-10-08T11:42:14;98568.09;;;24.85;31.30
58668;BME280;59852;43.086;25.634;2023-10-08T11:44:57;98561.97;;;25.17;31.04
58668;BME280;59852;43.086;25.634;2023-10-08T11:47:42;98566.06;;;25.13;30.66
58668;BME280;59852;43.086;25.634;2023-10-08T11:50:09;98572.22;;;24.87;30.97
58668;BME280;59852;43.086;25.634;2023-10-08T11:52:35;98566.41;;;24.57;31.41
58668;BME280;59852;43.086;25.634;2023-10-08T11:55:07;98571.56;;;24.52;31.29
58668;BME280;59852;43.086;25.634;2023-10-08T11:57:32;98545.69;;;24.79;31.03
58668;BME280;59852;43.086;25.634;2023-10-08T12:00:01;98542.38;;;24.77;31.10
58668;BME280;59852;43.086;25.634;2023-10-08T12:02:26;98553.53;;;25.07;30.48
58668;BME280;59852;43.086;25.634;2023-10-08T12:04:51;98534.78;;;25.21;30.14
58668;BME280;59852;43.086;25.634;2023-10-08T12:07:17;98557.41;;;24.98;30.81
58668;BME280;59852;43.086;25.634;2023-10-08T12:09:43;98536.78;;;25.45;30.02
58668;BME280;59852;43.086;25.634;2023-10-08T12:12:08;98545.09;;;25.10;30.68
58668;BME280;59852;43.086;25.634;2023-10-08T12:14:35;98536.59;;;25.40;30.27
58668;BME280;59852;43.086;25.634;2023-10-08T12:17:00;98527.78;;;25.20;29.92
58668;BME280;59852;43.086;25.634;2023-10-08T12:19:25;98537.06;;;25.10;30.67
58668;BME280;59852;43.086;25.634;2023-10-08T12:21:51;98533.75;;;25.22;30.63
58668;BME280;59852;43.086;25.634;2023-10-08T12:24:18;98533.72;;;24.95;31.20
58668;BME280;59852;43.086;25.634;2023-10-08T12:26:44;98533.53;;;24.83;31.21
58668;BME280;59852;43.086;25.634;2023-10-08T12:29:14;98529.84;;;24.98;30.76
58668;BME280;59852;43.086;25.634;2023-10-08T12:31:42;98544.25;;;25.03;31.17
58668;BME280;59852;43.086;25.634;2023-10-08T12:34:07;98537.03;;;25.24;31.02
58668;BME280;59852;43.086;25.634;2023-10-08T12:36:36;98547.53;;;25.05;30.85
58668;BME280;59852;43.086;25.634;2023-10-08T12:39:02;98551.06;;;25.19;30.50
58668;BME280;59852;43.086;25.634;2023-10-08T12:41:34;98539.72;;;25.24;30.38
58668;BME280;59852;43.086;25.634;2023-10-08T12:44:03;98552.28;;;25.30;30.70
58668;BME280;59852;43.086;25.634;2023-10-08T12:46:32;98542.56;;;24.96;31.34
58668;BME280;59852;43.086;25.634;2023-10-08T12:48:58;98541.16;;;25.06;31.14
58668;BME280;59852;43.086;25.634;2023-10-08T12:51:26;98546.50;;;24.86;31.30
58668;BME280;59852;43.086;25.634;2023-10-08T12:53:57;98536.44;;;25.08;30.85
58668;BME280;59852;43.086;25.634;2023-10-08T12:56:29;98530.22;;;24.75;31.33
58668;BME280;59852;43.086;25.634;2023-10-08T12:59:00;98530.84;;;24.70;31.36
58668;BME280;59852;43.086;25.634;2023-10-08T13:01:29;98524.50;;;24.78;31.56
58668;BME280;59852;43.086;25.634;2023-10-08T13:03:54;98521.59;;;24.86;31.58
58668;BME280;59852;43.086;25.634;2023-10-08T13:06:25;98519.34;;;24.83;31.30
58668;BME280;59852;43.086;25.634;2023-10-08T13:08:54;98524.47;;;24.84;31.07
58668;BME280;59852;43.086;25.634;2023-10-08T13:11:19;98517.69;;;24.95;30.82
58668;BME280;59852;43.086;25.634;2023-10-08T13:13:54;98521.81;;;25.04;31.03